sensor_id;sensor_type;location;lat;lon;timestamp;pressure;altitude;pressure_sealevel;temperature;humidity
20037;BME280;10179;42.640;23.312;2023-08-01T00:01:46;93341.53;;;23.99;45.67
20037;BME280;10179;42.640;23.312;2023-08-01T00:04:11;93304.44;;;23.75;46.03
20037;BME280;10179;42.640;23.312;2023-08-01T00:06:36;93434.84;;;24.63;46.18
20037;BME280;10179;42.640;23.312;2023-08-01T00:09:02;93429.03;;;24.61;46.16
20037;BME280;10179;42.640;23.312;2023-08-01T00:11:27;93430.13;;;24.60;46.07
20037;BME280;10179;42.640;23.312;2023-08-01T00:13:53;93425.88;;;24.59;46.29
20037;BME280;10179;42.640;23.312;2023-08-01T00:16:18;93215.47;;;23.21;46.04
20037;BME280;10179;42.640;23.312;2023-08-01T00:18:43;93425.22;;;24.53;46.11
20037;BME280;10179;42.640;23.312;2023-08-01T00:21:09;93404.06;;;24.43;46.03
20037;BME280;10179;42.640;23.312;2023-08-01T00:23:37;93356.22;;;23.84;46.28
20037;BME280;10179;42.640;23.312;2023-08-01T00:26:03;93412.75;;;24.48;46.08
20037;BME280;10179;42.640;23.312;2023-08-01T00:28:30;93418.75;;;24.45;46.08
20037;BME280;10179;42.640;23.312;2023-08-01T00:31:03;93414.16;;;24.46;46.22
20037;BME280;10179;42.640;23.312;2023-08-01T00:33:28;93374.53;;;24.17;46.15
20037;BME280;10179;42.640;23.312;2023-08-01T00:35:54;93394.13;;;24.26;46.05
20037;BME280;10179;42.640;23.312;2023-08-01T00:38:19;93413.56;;;24.40;46.11
20037;BME280;10179;42.640;23.312;2023-08-01T00:40:45;93422.22;;;24.37;46.10
20037;BME280;10179;42.640;23.312;2023-08-01T00:43:11;93425.03;;;24.32;46.16
20037;BME280;10179;42.640;23.312;2023-08-01T00:45:37;93339.81;;;23.77;46.33
20037;BME280;10179;42.640;23.312;2023-08-01T00:48:02;93412.41;;;24.24;46.39
20037;BME280;10179;42.640;23.312;2023-08-01T00:50:28;93421.59;;;24.23;46.26
20037;BME280;10179;42.640;23.312;2023-08-01T00:52:54;93416.50;;;24.21;46.70
20037;BME280;10179;42.640;23.312;2023-08-01T00:55:21;93385.25;;;23.99;46.53
20037;BME280;10179;42.640;23.312;2023-08-01T00:57:46;93377.06;;;24.04;46.44
20037;BME280;10179;42.640;23.312;2023-08-01T01:00:12;93404.06;;;24.17;46.47
20037;BME280;10179;42.640;23.312;2023-08-01T01:02:38;93401.38;;;24.17;46.42
20037;BME280;10179;42.640;23.312;2023-08-01T01:05:04;93408.16;;;24.14;46.44
20037;BME280;10179;42.640;23.312;2023-08-01T01:07:31;93370.41;;;23.93;46.52
20037;BME280;10179;42.640;23.312;2023-08-01T01:09:58;93400.41;;;24.13;46.55
20037;BME280;10179;42.640;23.312;2023-08-01T01:12:23;93396.63;;;24.14;46.54
20037;BME280;10179;42.640;23.312;2023-08-01T01:14:48;93402.00;;;24.14;46.59
20037;BME280;10179;42.640;23.312;2023-08-01T01:17:14;93342.94;;;23.79;46.44
20037;BME280;10179;42.640;23.312;2023-08-01T01:19:39;93395.06;;;24.13;46.40
20037;BME280;10179;42.640;23.312;2023-08-01T01:22:06;93379.25;;;24.02;46.29
20037;BME280;10179;42.640;23.312;2023-08-01T01:24:33;93264.97;;;23.32;46.51
20037;BME280;10179;42.640;23.312;2023-08-01T01:27:01;93388.41;;;24.10;46.43
20037;BME280;10179;42.640;23.312;2023-08-01T01:29:29;93273.63;;;23.38;46.25
20037;BME280;10179;42.640;23.312;2023-08-01T01:31:56;93386.50;;;24.11;46.50
20037;BME280;10179;42.640;23.312;2023-08-01T01:34:22;93345.31;;;23.80;46.41
20037;BME280;10179;42.640;23.312;2023-08-01T01:36:48;93225.03;;;23.04;46.28
20037;BME280;10179;42.640;23.312;2023-08-01T01:39:13;93285.31;;;23.42;46.25
20037;BME280;10179;42.640;23.312;2023-08-01T01:41:38;93365.81;;;23.94;46.35
20037;BME280;10179;42.640;23.312;2023-08-01T01:44:04;93373.72;;;24.08;46.64
20037;BME280;10179;42.640;23.312;2023-08-01T01:46:29;93383.84;;;24.11;46.44
20037;BME280;10179;42.640;23.312;2023-08-01T01:48:54;93385.09;;;24.13;46.28
20037;BME280;10179;42.640;23.312;2023-08-01T01:51:25;93322.13;;;23.76;46.10
20037;BME280;10179;42.640;23.312;2023-08-01T01:53:51;93383.84;;;24.19;46.13
20037;BME280;10179;42.640;23.312;2023-08-01T01:56:16;93360.31;;;24.08;46.09
20037;BME280;10179;42.640;23.312;2023-08-01T01:58:42;93271.75;;;23.38;46.11
20037;BME280;10179;42.640;23.312;2023-08-01T02:01:07;93372.78;;;23.95;46.41
20037;BME280;10179;42.640;23.312;2023-08-01T02:03:33;93334.75;;;23.84;45.90
20037;BME280;10179;42.640;23.312;2023-08-01T02:05:58;93387.63;;;24.27;46.13
20037;BME280;10179;42.640;23.312;2023-08-01T02:08:23;93369.34;;;24.12;45.94
20037;BME280;10179;42.640;23.312;2023-08-01T02:10:49;93270.97;;;23.46;45.88
20037;BME280;10179;42.640;23.312;2023-08-01T02:13:14;93062.28;;;22.09;45.70
20037;BME280;10179;42.640;23.312;2023-08-01T02:15:40;93391.56;;;24.21;45.70
20037;BME280;10179;42.640;23.312;2023-08-01T02:18:05;93377.06;;;24.04;45.52
20037;BME280;10179;42.640;23.312;2023-08-01T02:20:31;93364.41;;;23.96;45.37
20037;BME280;10179;42.640;23.312;2023-08-01T02:22:56;93386.34;;;24.07;45.70
20037;BME280;10179;42.640;23.312;2023-08-01T02:25:22;93391.28;;;24.05;45.58
20037;BME280;10179;42.640;23.312;2023-08-01T02:27:47;93385.41;;;24.03;45.55
20037;BME280;10179;42.640;23.312;2023-08-01T02:30:12;93315.13;;;23.57;45.80
20037;BME280;10179;42.640;23.312;2023-08-01T02:32:38;93364.72;;;23.86;45.73
20037;BME280;10179;42.640;23.312;2023-08-01T02:35:04;93385.75;;;24.01;45.55
20037;BME280;10179;42.640;23.312;2023-08-01T02:37:29;93352.88;;;23.78;45.63
20037;BME280;10179;42.640;23.312;2023-08-01T02:39:54;93387.47;;;23.97;45.56
20037;BME280;10179;42.640;23.312;2023-08-01T02:42:20;93392.84;;;23.97;45.53
20037;BME280;10179;42.640;23.312;2023-08-01T02:44:45;93294.28;;;23.37;45.35
20037;BME280;10179;42.640;23.312;2023-08-01T02:47:11;93385.44;;;23.94;45.24
20037;BME280;10179;42.640;23.312;2023-08-01T02:49:36;93381.94;;;23.94;45.23
20037;BME280;10179;42.640;23.312;2023-08-01T02:52:02;93267.94;;;23.13;45.24
20037;BME280;10179;42.640;23.312;2023-08-01T02:54:27;93044.38;;;21.70;45.26
20037;BME280;10179;42.640;23.312;2023-08-01T02:56:52;93349.69;;;23.59;45.07
20037;BME280;10179;42.640;23.312;2023-08-01T02:59:18;93305.28;;;23.27;44.72
20037;BME280;10179;42.640;23.312;2023-08-01T03:01:43;93341.56;;;23.33;44.22
20037;BME280;10179;42.640;23.312;2023-08-01T03:04:09;93389.00;;;23.72;44.43
20037;BME280;10179;42.640;23.312;2023-08-01T03:06:37;93386.16;;;23.69;44.42
20037;BME280;10179;42.640;23.312;2023-08-01T03:09:03;93380.59;;;23.65;44.39
20037;BME280;10179;42.640;23.312;2023-08-01T03:11:28;93343.97;;;23.34;44.42
20037;BME280;10179;42.640;23.312;2023-08-01T03:13:54;93369.53;;;23.49;44.59
20037;BME280;10179;42.640;23.312;2023-08-01T03:16:19;93355.31;;;23.40;44.80
20037;BME280;10179;42.640;23.312;2023-08-01T03:18:45;93352.91;;;23.30;44.88
20037;BME280;10179;42.640;23.312;2023-08-01T03:21:10;93351.34;;;23.29;45.07
20037;BME280;10179;42.640;23.312;2023-08-01T03:23:36;93358.91;;;23.27;45.00
20037;BME280;10179;42.640;23.312;2023-08-01T03:26:02;93387.34;;;23.45;45.10
20037;BME280;10179;42.640;23.312;2023-08-01T03:28:27;93386.88;;;23.43;45.29
20037;BME280;10179;42.640;23.312;2023-08-01T03:30:53;93390.34;;;23.44;45.05
20037;BME280;10179;42.640;23.312;2023-08-01T03:33:20;93344.38;;;23.10;45.30
20037;BME280;10179;42.640;23.312;2023-08-01T03:35:45;93374.53;;;23.33;45.08
20037;BME280;10179;42.640;23.312;2023-08-01T03:38:10;93392.72;;;23.45;45.06
20037;BME280;10179;42.640;23.312;2023-08-01T03:40:36;93296.88;;;22.94;45.45
20037;BME280;10179;42.640;23.312;2023-08-01T03:43:01;93400.13;;;23.48;45.17
20037;BME280;10179;42.640;23.312;2023-08-01T03:45:27;93359.53;;;23.24;45.14
20037;BME280;10179;42.640;23.312;2023-08-01T03:47:52;93390.84;;;23.54;45.45
20037;BME280;10179;42.640;23.312;2023-08-01T03:50:17;93392.59;;;23.59;45.15
20037;BME280;10179;42.640;23.312;2023-08-01T03:52:43;93364.31;;;23.44;44.77
20037;BME280;10179;42.640;23.312;2023-08-01T03:55:09;93395.31;;;23.68;44.52
20037;BME280;10179;42.640;23.312;2023-08-01T03:57:34;93352.19;;;23.47;44.24
20037;BME280;10179;42.640;23.312;2023-08-01T04:00:00;93397.69;;;23.78;44.04
20037;BME280;10179;42.640;23.312;2023-08-01T04:02:25;93167.66;;;22.31;43.78
20037;BME280;10179;42.640;23.312;2023-08-01T04:04:51;93348.94;;;23.67;43.63
20037;BME280;10179;42.640;23.312;2023-08-01T04:07:16;93406.56;;;24.13;43.61
20037;BME280;10179;42.640;23.312;2023-08-01T04:09:42;93409.59;;;24.29;43.31
20037;BME280;10179;42.640;23.312;2023-08-01T04:12:07;93373.91;;;24.20;43.18
20037;BME280;10179;42.640;23.312;2023-08-01T04:14:34;93410.56;;;24.50;43.16
20037;BME280;10179;42.640;23.312;2023-08-01T04:16:59;93407.38;;;24.48;44.29
20037;BME280;10179;42.640;23.312;2023-08-01T04:19:25;93390.31;;;24.27;45.54
20037;BME280;10179;42.640;23.312;2023-08-01T04:21:50;93329.84;;;23.86;45.86
20037;BME280;10179;42.640;23.312;2023-08-01T04:24:16;93377.22;;;24.25;46.19
20037;BME280;10179;42.640;23.312;2023-08-01T04:26:41;93382.91;;;24.33;46.59
20037;BME280;10179;42.640;23.312;2023-08-01T04:29:07;93355.25;;;24.15;46.73
20037;BME280;10179;42.640;23.312;2023-08-01T04:31:32;93380.69;;;24.35;46.83
20037;BME280;10179;42.640;23.312;2023-08-01T04:33:58;93359.84;;;24.23;46.94
20037;BME280;10179;42.640;23.312;2023-08-01T04:36:23;93385.13;;;24.48;47.09
20037;BME280;10179;42.640;23.312;2023-08-01T04:38:48;93384.63;;;24.55;46.87
20037;BME280;10179;42.640;23.312;2023-08-01T04:41:14;93413.34;;;24.80;46.65
20037;BME280;10179;42.640;23.312;2023-08-01T04:43:39;93417.44;;;24.86;46.42
20037;BME280;10179;42.640;23.312;2023-08-01T04:46:05;93424.69;;;24.94;46.17
20037;BME280;10179;42.640;23.312;2023-08-01T04:48:30;93400.06;;;24.92;45.91
20037;BME280;10179;42.640;23.312;2023-08-01T04:50:56;93406.97;;;25.11;45.68
20037;BME280;10179;42.640;23.312;2023-08-01T04:53:21;93396.69;;;25.13;45.59
20037;BME280;10179;42.640;23.312;2023-08-01T04:55:46;93405.44;;;25.39;45.15
20037;BME280;10179;42.640;23.312;2023-08-01T04:58:12;93405.53;;;25.52;44.95
20037;BME280;10179;42.640;23.312;2023-08-01T05:00:38;93418.16;;;25.60;44.51
20037;BME280;10179;42.640;23.312;2023-08-01T05:03:05;93409.81;;;25.82;44.39
20037;BME280;10179;42.640;23.312;2023-08-01T05:05:30;93406.09;;;25.96;43.71
20037;BME280;10179;42.640;23.312;2023-08-01T05:07:56;93415.97;;;26.12;43.32
20037;BME280;10179;42.640;23.312;2023-08-01T05:10:21;93407.66;;;26.26;43.01
20037;BME280;10179;42.640;23.312;2023-08-01T05:12:46;93380.47;;;26.19;42.45
20037;BME280;10179;42.640;23.312;2023-08-01T05:15:12;93230.66;;;25.39;41.87
20037;BME280;10179;42.640;23.312;2023-08-01T05:17:38;93394.88;;;26.56;41.91
20037;BME280;10179;42.640;23.312;2023-08-01T05:20:04;93399.44;;;26.77;41.30
20037;BME280;10179;42.640;23.312;2023-08-01T05:22:29;93375.31;;;26.80;40.78
20037;BME280;10179;42.640;23.312;2023-08-01T05:24:54;93405.28;;;27.12;40.92
20037;BME280;10179;42.640;23.312;2023-08-01T05:27:20;93415.44;;;27.27;40.28
20037;BME280;10179;42.640;23.312;2023-08-01T05:29:45;93408.72;;;27.46;39.27
20037;BME280;10179;42.640;23.312;2023-08-01T05:32:11;93410.50;;;27.54;38.85
20037;BME280;10179;42.640;23.312;2023-08-01T05:34:36;93423.09;;;27.62;38.81
20037;BME280;10179;42.640;23.312;2023-08-01T05:37:01;93426.94;;;27.73;38.51
20037;BME280;10179;42.640;23.312;2023-08-01T05:39:27;93421.13;;;27.83;37.66
20037;BME280;10179;42.640;23.312;2023-08-01T05:41:53;93419.31;;;27.88;37.35
20037;BME280;10179;42.640;23.312;2023-08-01T05:44:18;93415.47;;;27.89;36.74
20037;BME280;10179;42.640;23.312;2023-08-01T05:46:44;93398.19;;;27.77;37.17
20037;BME280;10179;42.640;23.312;2023-08-01T05:49:09;93397.50;;;27.80;37.25
20037;BME280;10179;42.640;23.312;2023-08-01T05:51:34;93418.66;;;27.91;37.42
20037;BME280;10179;42.640;23.312;2023-08-01T05:54:00;93368.25;;;27.70;36.88
20037;BME280;10179;42.640;23.312;2023-08-01T05:56:25;93271.59;;;27.23;36.93
20037;BME280;10179;42.640;23.312;2023-08-01T05:58:51;93408.91;;;28.14;36.20
20037;BME280;10179;42.640;23.312;2023-08-01T06:01:16;93380.94;;;27.94;36.45
20037;BME280;10179;42.640;23.312;2023-08-01T06:03:42;93392.28;;;28.12;35.93
20037;BME280;10179;42.640;23.312;2023-08-01T06:06:07;93409.78;;;28.30;35.73
20037;BME280;10179;42.640;23.312;2023-08-01T06:08:33;93407.06;;;28.43;35.38
20037;BME280;10179;42.640;23.312;2023-08-01T06:10:58;93358.47;;;28.18;34.86
20037;BME280;10179;42.640;23.312;2023-08-01T06:13:24;93411.88;;;28.49;34.71
20037;BME280;10179;42.640;23.312;2023-08-01T06:15:49;93411.06;;;28.61;34.94
20037;BME280;10179;42.640;23.312;2023-08-01T06:18:15;93410.50;;;28.68;34.31
20037;BME280;10179;42.640;23.312;2023-08-01T06:20:40;93390.56;;;28.60;34.68
20037;BME280;10179;42.640;23.312;2023-08-01T06:23:05;93407.25;;;28.78;33.97
20037;BME280;10179;42.640;23.312;2023-08-01T06:25:31;93409.63;;;28.80;34.04
20037;BME280;10179;42.640;23.312;2023-08-01T06:27:56;93410.97;;;28.86;33.88
20037;BME280;10179;42.640;23.312;2023-08-01T06:30:22;93385.22;;;28.76;33.36
20037;BME280;10179;42.640;23.312;2023-08-01T06:32:47;93405.75;;;28.93;33.22
20037;BME280;10179;42.640;23.312;2023-08-01T06:35:13;93403.72;;;28.90;33.11
20037;BME280;10179;42.640;23.312;2023-08-01T06:37:38;93399.19;;;28.94;33.42
20037;BME280;10179;42.640;23.312;2023-08-01T06:40:04;93330.09;;;28.65;33.03
20037;BME280;10179;42.640;23.312;2023-08-01T06:42:29;93392.03;;;29.30;32.43
20037;BME280;10179;42.640;23.312;2023-08-01T06:44:55;93365.47;;;29.19;32.64
20037;BME280;10179;42.640;23.312;2023-08-01T06:47:20;93399.78;;;29.47;31.89
20037;BME280;10179;42.640;23.312;2023-08-01T06:49:46;93365.06;;;29.17;32.61
20037;BME280;10179;42.640;23.312;2023-08-01T06:52:11;93398.75;;;29.36;32.58
20037;BME280;10179;42.640;23.312;2023-08-01T06:54:37;93401.34;;;29.48;33.01
20037;BME280;10179;42.640;23.312;2023-08-01T06:57:02;93399.84;;;29.63;32.31
20037;BME280;10179;42.640;23.312;2023-08-01T06:59:27;93394.22;;;29.71;31.96
20037;BME280;10179;42.640;23.312;2023-08-01T07:01:53;93405.31;;;29.66;31.67
20037;BME280;10179;42.640;23.312;2023-08-01T07:04:19;93397.91;;;29.63;31.98
20037;BME280;10179;42.640;23.312;2023-08-01T07:06:44;93394.50;;;29.66;32.13
20037;BME280;10179;42.640;23.312;2023-08-01T07:09:09;93343.94;;;29.39;32.13
20037;BME280;10179;42.640;23.312;2023-08-01T07:11:35;93390.13;;;29.78;31.91
20037;BME280;10179;42.640;23.312;2023-08-01T07:14:00;93367.47;;;29.54;32.27
20037;BME280;10179;42.640;23.312;2023-08-01T07:16:26;93370.56;;;29.68;32.03
20037;BME280;10179;42.640;23.312;2023-08-01T07:18:51;93355.44;;;29.67;31.58
20037;BME280;10179;42.640;23.312;2023-08-01T07:21:17;93356.16;;;29.64;31.63
20037;BME280;10179;42.640;23.312;2023-08-01T07:23:43;93372.34;;;29.96;31.58
20037;BME280;10179;42.640;23.312;2023-08-01T07:26:09;93316.75;;;29.51;31.43
20037;BME280;10179;42.640;23.312;2023-08-01T07:28:34;93392.03;;;30.12;31.36
20037;BME280;10179;42.640;23.312;2023-08-01T07:31:04;93379.88;;;30.22;31.21
20037;BME280;10179;42.640;23.312;2023-08-01T07:33:30;93382.53;;;30.38;30.90
20037;BME280;10179;42.640;23.312;2023-08-01T07:35:56;93384.25;;;30.46;30.68
20037;BME280;10179;42.640;23.312;2023-08-01T07:38:21;93382.13;;;30.55;30.80
20037;BME280;10179;42.640;23.312;2023-08-01T07:40:47;93375.81;;;30.71;30.80
20037;BME280;10179;42.640;23.312;2023-08-01T07:43:12;93383.41;;;30.81;30.07
20037;BME280;10179;42.640;23.312;2023-08-01T07:45:40;93381.97;;;30.87;30.50
20037;BME280;10179;42.640;23.312;2023-08-01T07:48:06;93344.72;;;30.84;30.54
20037;BME280;10179;42.640;23.312;2023-08-01T07:50:31;93364.09;;;31.28;29.89
20037;BME280;10179;42.640;23.312;2023-08-01T07:52:57;93377.19;;;31.69;29.03
20037;BME280;10179;42.640;23.312;2023-08-01T07:55:23;93382.00;;;31.79;29.25
20037;BME280;10179;42.640;23.312;2023-08-01T07:57:48;93334.78;;;31.60;29.24
20037;BME280;10179;42.640;23.312;2023-08-01T08:00:14;93380.03;;;32.02;28.46
20037;BME280;10179;42.640;23.312;2023-08-01T08:02:44;93261.19;;;31.43;28.61
20037;BME280;10179;42.640;23.312;2023-08-01T08:05:10;93371.31;;;32.46;28.23
20037;BME280;10179;42.640;23.312;2023-08-01T08:07:39;93331.69;;;32.45;27.78
20037;BME280;10179;42.640;23.312;2023-08-01T08:10:05;93373.84;;;32.62;27.76
20037;BME280;10179;42.640;23.312;2023-08-01T08:12:31;93362.19;;;32.95;27.28
20037;BME280;10179;42.640;23.312;2023-08-01T08:14:56;93368.38;;;33.33;27.18
20037;BME280;10179;42.640;23.312;2023-08-01T08:17:22;93302.94;;;33.22;26.52
20037;BME280;10179;42.640;23.312;2023-08-01T08:19:47;93322.84;;;33.78;26.13
20037;BME280;10179;42.640;23.312;2023-08-01T08:22:13;93335.97;;;34.24;26.05
20037;BME280;10179;42.640;23.312;2023-08-01T08:24:38;93349.09;;;34.84;25.27
20037;BME280;10179;42.640;23.312;2023-08-01T08:27:04;93302.31;;;34.82;24.63
20037;BME280;10179;42.640;23.312;2023-08-01T08:29:31;93285.13;;;34.89;24.75
20037;BME280;10179;42.640;23.312;2023-08-01T08:31:57;93329.69;;;35.11;24.75
20037;BME280;10179;42.640;23.312;2023-08-01T08:34:22;93357.78;;;35.22;24.52
20037;BME280;10179;42.640;23.312;2023-08-01T08:36:47;93346.75;;;34.79;24.88
20037;BME280;10179;42.640;23.312;2023-08-01T08:39:15;93322.44;;;34.46;25.33
20037;BME280;10179;42.640;23.312;2023-08-01T08:41:50;93334.66;;;34.84;25.51
20037;BME280;10179;42.640;23.312;2023-08-01T08:44:18;93327.72;;;35.11;25.15
20037;BME280;10179;42.640;23.312;2023-08-01T08:46:49;93269.50;;;34.68;24.81
20037;BME280;10179;42.640;23.312;2023-08-01T08:49:15;93307.81;;;35.04;24.98
20037;BME280;10179;42.640;23.312;2023-08-01T08:51:42;93236.31;;;34.48;24.81
20037;BME280;10179;42.640;23.312;2023-08-01T08:54:09;93324.16;;;34.86;25.00
20037;BME280;10179;42.640;23.312;2023-08-01T08:56:35;93323.25;;;34.57;25.31
20037;BME280;10179;42.640;23.312;2023-08-01T08:59:01;93326.69;;;34.39;25.60
20037;BME280;10179;42.640;23.312;2023-08-01T09:01:27;93316.94;;;34.38;26.02
20037;BME280;10179;42.640;23.312;2023-08-01T09:03:52;93269.69;;;34.06;25.69
20037;BME280;10179;42.640;23.312;2023-08-01T09:06:24;93322.69;;;34.15;25.90
20037;BME280;10179;42.640;23.312;2023-08-01T09:08:52;93326.16;;;34.05;26.34
20037;BME280;10179;42.640;23.312;2023-08-01T09:11:20;93299.94;;;33.93;26.19
20037;BME280;10179;42.640;23.312;2023-08-01T09:13:47;93216.59;;;33.23;26.59
20037;BME280;10179;42.640;23.312;2023-08-01T09:16:14;93309.94;;;33.71;26.66
20037;BME280;10179;42.640;23.312;2023-08-01T09:18:52;93275.22;;;33.58;26.61
20037;BME280;10179;42.640;23.312;2023-08-01T09:21:21;93300.13;;;33.56;27.04
20037;BME280;10179;42.640;23.312;2023-08-01T09:23:47;93294.84;;;33.30;27.28
20037;BME280;10179;42.640;23.312;2023-08-01T09:26:17;93303.06;;;33.37;27.67
20037;BME280;10179;42.640;23.312;2023-08-01T09:28:43;93304.97;;;33.33;27.67
20037;BME280;10179;42.640;23.312;2023-08-01T09:31:10;93267.81;;;33.07;27.70
20037;BME280;10179;42.640;23.312;2023-08-01T09:33:42;93292.03;;;33.19;27.60
20037;BME280;10179;42.640;23.312;2023-08-01T09:36:08;93267.06;;;33.10;28.10
20037;BME280;10179;42.640;23.312;2023-08-01T09:38:35;93073.38;;;32.04;27.89
20037;BME280;10179;42.640;23.312;2023-08-01T09:41:02;93259.41;;;33.26;27.89
20037;BME280;10179;42.640;23.312;2023-08-01T09:43:34;93289.44;;;33.37;27.33
20037;BME280;10179;42.640;23.312;2023-08-01T09:46:03;93286.69;;;33.33;27.83
20037;BME280;10179;42.640;23.312;2023-08-01T09:48:29;93250.78;;;33.20;27.47
20037;BME280;10179;42.640;23.312;2023-08-01T09:53:31;93299.53;;;33.84;27.81
20037;BME280;10179;42.640;23.312;2023-08-01T09:55:59;93259.13;;;34.01;27.14
20037;BME280;10179;42.640;23.312;2023-08-01T09:58:29;93265.50;;;34.30;26.53
20037;BME280;10179;42.640;23.312;2023-08-01T10:00:56;93265.53;;;34.40;26.07
20037;BME280;10179;42.640;23.312;2023-08-01T10:03:22;93268.59;;;34.28;26.03
20037;BME280;10179;42.640;23.312;2023-08-01T10:05:48;93261.84;;;34.01;26.01
20037;BME280;10179;42.640;23.312;2023-08-01T10:08:18;93254.75;;;33.85;26.95
20037;BME280;10179;42.640;23.312;2023-08-01T10:10:45;93254.38;;;33.90;26.58
20037;BME280;10179;42.640;23.312;2023-08-01T10:13:13;93239.19;;;33.89;26.62
20037;BME280;10179;42.640;23.312;2023-08-01T10:15:38;93182.59;;;33.54;26.60
20037;BME280;10179;42.640;23.312;2023-08-01T10:18:04;93246.66;;;34.00;26.59
20037;BME280;10179;42.640;23.312;2023-08-01T10:20:30;93243.59;;;34.12;26.50
20037;BME280;10179;42.640;23.312;2023-08-01T10:22:57;93244.81;;;34.29;26.14
20037;BME280;10179;42.640;23.312;2023-08-01T10:25:23;93244.84;;;34.39;26.22
20037;BME280;10179;42.640;23.312;2023-08-01T10:28:05;93242.13;;;34.47;26.08
20037;BME280;10179;42.640;23.312;2023-08-01T10:30:30;93232.03;;;34.43;25.92
20037;BME280;10179;42.640;23.312;2023-08-01T10:32:57;93226.63;;;34.51;25.58
20037;BME280;10179;42.640;23.312;2023-08-01T10:35:41;93180.25;;;34.65;25.38
20037;BME280;10179;42.640;23.312;2023-08-01T10:38:07;93219.25;;;35.19;24.92
20037;BME280;10179;42.640;23.312;2023-08-01T10:40:37;93198.56;;;35.32;24.71
20037;BME280;10179;42.640;23.312;2023-08-01T10:43:03;93151.78;;;35.09;24.08
20037;BME280;10179;42.640;23.312;2023-08-01T10:45:29;93209.09;;;35.52;24.07
20037;BME280;10179;42.640;23.312;2023-08-01T10:48:06;93123.72;;;34.76;24.31
20037;BME280;10179;42.640;23.312;2023-08-01T10:50:32;93211.06;;;34.83;24.46
20037;BME280;10179;42.640;23.312;2023-08-01T10:53:08;93189.97;;;34.62;24.90
20037;BME280;10179;42.640;23.312;2023-08-01T10:55:46;93205.19;;;34.85;24.86
20037;BME280;10179;42.640;23.312;2023-08-01T10:58:12;93200.94;;;35.09;24.48
20037;BME280;10179;42.640;23.312;2023-08-01T11:00:38;93198.56;;;35.54;24.01
20037;BME280;10179;42.640;23.312;2023-08-01T11:03:03;93198.44;;;35.90;23.61
20037;BME280;10179;42.640;23.312;2023-08-01T11:05:29;93202.25;;;36.21;22.96
20037;BME280;10179;42.640;23.312;2023-08-01T11:08:02;93182.19;;;36.42;22.74
20037;BME280;10179;42.640;23.312;2023-08-01T11:10:29;93187.34;;;36.92;22.30
20037;BME280;10179;42.640;23.312;2023-08-01T11:12:55;93186.50;;;37.02;21.92
20037;BME280;10179;42.640;23.312;2023-08-01T11:15:21;93188.94;;;36.86;22.26
20037;BME280;10179;42.640;23.312;2023-08-01T11:17:49;93179.88;;;36.99;21.98
20037;BME280;10179;42.640;23.312;2023-08-01T11:20:15;93179.06;;;37.02;22.17
20037;BME280;10179;42.640;23.312;2023-08-01T11:25:17;93179.13;;;36.92;21.85
20037;BME280;10179;42.640;23.312;2023-08-01T11:27:43;93034.34;;;36.04;22.07
20037;BME280;10179;42.640;23.312;2023-08-01T11:30:09;93159.88;;;37.02;21.55
20037;BME280;10179;42.640;23.312;2023-08-01T11:32:36;93090.75;;;36.88;21.32
20037;BME280;10179;42.640;23.312;2023-08-01T11:35:02;93165.44;;;37.37;21.02
20037;BME280;10179;42.640;23.312;2023-08-01T11:37:27;93087.03;;;36.67;21.27
20037;BME280;10179;42.640;23.312;2023-08-01T11:39:53;93160.88;;;36.74;21.17
20037;BME280;10179;42.640;23.312;2023-08-01T11:42:19;93163.56;;;36.19;21.24
20037;BME280;10179;42.640;23.312;2023-08-01T11:44:45;93152.44;;;35.70;21.89
20037;BME280;10179;42.640;23.312;2023-08-01T11:47:14;93140.03;;;35.26;22.58
20037;BME280;10179;42.640;23.312;2023-08-01T11:49:45;93147.09;;;35.06;23.26
20037;BME280;10179;42.640;23.312;2023-08-01T11:52:22;93093.28;;;34.38;22.98
20037;BME280;10179;42.640;23.312;2023-08-01T11:54:48;93140.81;;;34.37;23.74
20037;BME280;10179;42.640;23.312;2023-08-01T11:57:13;93136.13;;;34.24;23.93
20037;BME280;10179;42.640;23.312;2023-08-01T11:59:48;93114.22;;;33.88;24.66
20037;BME280;10179;42.640;23.312;2023-08-01T12:02:28;93130.50;;;33.70;24.50
20037;BME280;10179;42.640;23.312;2023-08-01T12:04:55;93110.06;;;33.24;25.47
20037;BME280;10179;42.640;23.312;2023-08-01T12:07:21;93068.53;;;32.76;25.21
20037;BME280;10179;42.640;23.312;2023-08-01T12:10:00;93118.38;;;32.94;25.46
20037;BME280;10179;42.640;23.312;2023-08-01T12:12:26;93119.06;;;32.77;24.33
20037;BME280;10179;42.640;23.312;2023-08-01T12:14:52;93128.31;;;32.69;24.74
20037;BME280;10179;42.640;23.312;2023-08-01T12:17:19;92840.97;;;30.81;24.31
20037;BME280;10179;42.640;23.312;2023-08-01T12:19:44;93053.31;;;32.20;24.19
20037;BME280;10179;42.640;23.312;2023-08-01T12:22:10;93111.91;;;32.54;24.54
20037;BME280;10179;42.640;23.312;2023-08-01T12:24:35;93108.81;;;32.60;24.46
20037;BME280;10179;42.640;23.312;2023-08-01T12:27:09;93105.75;;;32.61;24.09
20037;BME280;10179;42.640;23.312;2023-08-01T12:29:35;92915.97;;;31.37;24.08
20037;BME280;10179;42.640;23.312;2023-08-01T12:32:02;93102.22;;;32.61;24.30
20037;BME280;10179;42.640;23.312;2023-08-01T12:34:27;93102.63;;;32.63;23.52
20037;BME280;10179;42.640;23.312;2023-08-01T12:36:53;93103.84;;;32.69;23.74
20037;BME280;10179;42.640;23.312;2023-08-01T12:39:18;93086.31;;;32.63;23.24
20037;BME280;10179;42.640;23.312;2023-08-01T12:41:43;93075.44;;;32.63;23.40
20037;BME280;10179;42.640;23.312;2023-08-01T12:44:09;93091.13;;;32.84;24.15
20037;BME280;10179;42.640;23.312;2023-08-01T12:46:34;93086.09;;;32.89;23.76
20037;BME280;10179;42.640;23.312;2023-08-01T12:49:00;93052.97;;;32.73;23.74
20037;BME280;10179;42.640;23.312;2023-08-01T12:51:25;93056.34;;;32.55;23.01